Lawrenceville, Arkansas
Current Conditions -  °F | °C
As of 12:35 PM on Tuesday 27 Jan 2015 (Local Time) from KSGT Reporting Station
Clear Clear  
Wind Chill: 14°   Ceiling: Unl
Heat Index: 14°   Visibility: 10mi
Dew Point:   Wind: 6mph
Humidity: 44%   Direction: 360°N
Pressure: 30.15"   Gusts: NA
Location:  34.5919°N, 91.1409°W
Report Text: KSGT 271835Z AUTO 36005KT 10SM CLR 14/02 A3015 RMK AO1
Loading
Personal Weather Stations






























Interactive Weather Map New forecast layout! Learn more

10-Day Weather Forecast

Advertisements
Track Severe Weather on mobile